Time;durP1;ratioP1;P1;durP2;ratioP2;P2;SDS_P1;SDS_P2;PMS_P1;PMS_P2;Temp;Humidity;BMP_temperature;BMP_pressure;BME280_temperature;BME280_humidity;BME280_pressure;Samples;Min_cycle;Max_cycle;Signal;HPM_P1;HPM_P2
2022/12/13 00:01:17;;;;;;;2.83;2.73;;;-2.30;99.90;;;;;;4941169;28;20725;-93
2022/12/13 00:03:44;;;;;;;2.77;2.43;;;-2.30;99.90;;;;;;4944921;28;20190;-91
2022/12/13 00:06:10;;;;;;;5.53;3.50;;;-2.30;99.90;;;;;;4938058;28;20209;-92
2022/12/13 00:08:37;;;;;;;2.10;1.67;;;-2.30;99.90;;;;;;4945776;29;20185;-93
2022/12/13 00:11:06;;;;;;;3.20;3.00;;;-2.30;99.90;;;;;;4941060;29;20252;-90
2022/12/13 00:13:32;;;;;;;3.43;3.27;;;-2.30;99.90;;;;;;4949274;29;20205;-91
2022/12/13 00:16:02;;;;;;;2.17;2.07;;;-2.30;99.90;;;;;;4942784;28;20304;-92
2022/12/13 00:18:28;;;;;;;3.57;3.37;;;-2.40;99.90;;;;;;4941103;29;20182;-89
2022/12/13 00:20:54;;;;;;;3.33;2.57;;;-2.60;99.90;;;;;;4938117;29;20248;-91
2022/12/13 00:23:19;;;;;;;5.83;2.77;;;-2.90;99.90;;;;;;4951521;28;20607;-92
2022/12/13 00:25:46;;;;;;;6.50;5.77;;;-3.00;99.90;;;;;;4953937;28;20456;-93
2022/12/13 00:28:12;;;;;;;2.87;2.67;;;-2.90;99.90;;;;;;4939690;29;20554;-91
2022/12/13 00:30:38;;;;;;;5.93;3.77;;;-2.90;99.90;;;;;;4941075;28;20197;-92
2022/12/13 00:33:05;;;;;;;6.57;4.17;;;-2.80;99.90;;;;;;4936030;29;20200;-91
2022/12/13 00:35:40;;;;;;;3.43;3.13;;;-2.70;99.90;;;;;;4942836;29;20190;-92
2022/12/13 00:38:08;;;;;;;1.67;1.67;;;-2.70;99.90;;;;;;4937932;29;20201;-91
2022/12/13 00:40:34;;;;;;;3.20;1.63;;;-2.70;99.90;;;;;;4938762;28;20626;-92
2022/12/13 00:42:59;;;;;;;3.30;2.50;;;-2.60;99.90;;;;;;4937876;29;20234;-92
2022/12/13 00:45:25;;;;;;;3.13;2.93;;;-2.60;99.90;;;;;;4964513;28;20288;-91
2022/12/13 00:47:51;;;;;;;4.23;4.03;;;-2.60;99.90;;;;;;4956028;28;20606;-88
2022/12/13 00:50:16;;;;;;;4.13;3.30;;;-2.50;99.90;;;;;;4953273;28;20194;-92
2022/12/13 00:52:42;;;;;;;1.80;1.70;;;-2.50;99.90;;;;;;4953734;28;20548;-91
2022/12/13 00:55:08;;;;;;;1.13;1.00;;;-2.50;99.90;;;;;;4945160;29;20258;-91
2022/12/13 00:57:34;;;;;;;1.67;1.67;;;-2.50;99.90;;;;;;4945927;29;20198;-90
2022/12/13 00:59:59;;;;;;;2.50;2.20;;;-2.50;99.90;;;;;;4953446;28;20205;-92
2022/12/13 01:02:25;;;;;;;11.30;3.20;;;-2.50;99.90;;;;;;4957106;28;20525;-93
2022/12/13 01:04:52;;;;;;;2.30;2.20;;;-2.60;99.90;;;;;;4958780;28;20616;-93
2022/12/13 01:07:18;;;;;;;4.60;3.40;;;-2.60;99.90;;;;;;4931507;29;20217;-93
2022/12/13 01:09:44;;;;;;;2.53;2.43;;;-2.60;99.90;;;;;;4913475;29;20627;-89
2022/12/13 01:12:10;;;;;;;6.50;4.90;;;-2.60;99.90;;;;;;4944905;29;20253;-90
2022/12/13 01:14:38;;;;;;;8.87;3.60;;;-2.60;99.90;;;;;;4939354;29;20275;-93
2022/12/13 01:17:04;;;;;;;1.57;1.47;;;-2.60;99.90;;;;;;4953651;28;20197;-88
2022/12/13 01:19:30;;;;;;;5.83;5.53;;;-2.50;99.90;;;;;;4952221;28;20198;-93
2022/12/13 01:21:58;;;;;;;4.63;2.53;;;-2.50;99.90;;;;;;4954248;28;20301;-91
2022/12/13 01:24:24;;;;;;;2.33;2.03;;;-2.50;99.90;;;;;;4947846;29;20253;-92
2022/12/13 01:26:52;;;;;;;3.13;1.80;;;-2.50;99.90;;;;;;4934258;28;20222;-93
2022/12/13 01:29:19;;;;;;;2.80;2.53;;;-2.40;99.90;;;;;;4938791;29;20186;-89
2022/12/13 01:31:46;;;;;;;2.47;2.37;;;-2.40;99.90;;;;;;4940730;29;20214;-90
2022/12/13 01:34:13;;;;;;;6.17;4.13;;;-2.40;99.90;;;;;;4948100;28;20623;-93
2022/12/13 01:36:41;;;;;;;6.67;5.97;;;-2.40;99.90;;;;;;4953235;28;20197;-92
2022/12/13 01:39:08;;;;;;;4.60;4.33;;;-2.40;99.90;;;;;;4933204;29;20197;-89
2022/12/13 01:41:34;;;;;;;3.13;2.93;;;-2.40;99.90;;;;;;4934645;29;20201;-93
2022/12/13 01:44:39;;;;;;;3.60;3.40;;;-2.40;99.90;;;;;;4944603;29;20194;-93
2022/12/13 01:47:04;;;;;;;4.60;4.03;;;-2.40;99.90;;;;;;4956274;28;20721;-91
2022/12/13 01:49:30;;;;;;;3.30;3.10;;;-2.40;99.90;;;;;;4934755;29;20194;-92
2022/12/13 01:52:02;;;;;;;0.87;0.87;;;-2.40;99.90;;;;;;4938081;29;20206;-91
2022/12/13 01:54:37;;;;;;;5.67;4.43;;;-2.30;99.90;;;;;;4944302;28;20193;-89
2022/12/13 01:57:07;;;;;;;1.60;1.53;;;-2.40;99.90;;;;;;4934843;29;20674;-92
2022/12/13 01:59:38;;;;;;;3.07;2.60;;;-2.40;99.90;;;;;;4936694;28;20280;-92
2022/12/13 02:02:05;;;;;;;6.60;4.37;;;-2.40;99.90;;;;;;4944612;28;20733;-92
2022/12/13 02:04:39;;;;;;;5.37;3.77;;;-2.40;99.90;;;;;;4935710;29;20646;-91
2022/12/13 02:07:06;;;;;;;1.90;1.80;;;-2.40;99.90;;;;;;4942032;29;20173;-92
2022/12/13 02:09:34;;;;;;;3.13;2.53;;;-2.30;99.90;;;;;;4949329;28;20678;-89
2022/12/13 02:12:03;;;;;;;2.37;2.17;;;-2.30;99.90;;;;;;4937977;28;20775;-89
2022/12/13 02:14:28;;;;;;;2.63;2.50;;;-2.30;99.90;;;;;;4951482;28;20190;-91
2022/12/13 02:17:00;;;;;;;3.00;2.87;;;-2.30;99.90;;;;;;4933566;29;20199;-91
2022/12/13 02:19:32;;;;;;;2.40;2.20;;;-2.30;99.90;;;;;;4934104;29;20194;-92
2022/12/13 02:22:16;;;;;;;1.67;1.53;;;-2.30;99.90;;;;;;4934399;29;20348;-91
2022/12/13 02:24:54;;;;;;;0.77;0.77;;;-2.30;99.90;;;;;;4948311;28;20193;-91
2022/12/13 02:28:03;;;;;;;1.40;1.20;;;-2.30;99.90;;;;;;4939626;28;20264;-92
2022/12/13 02:30:39;;;;;;;4.23;2.63;;;-2.20;99.90;;;;;;4936065;28;20186;-92
2022/12/13 02:33:19;;;;;;;1.03;1.03;;;-2.20;99.90;;;;;;4949478;28;20217;-93
2022/12/13 02:36:05;;;;;;;5.43;4.07;;;-2.10;99.90;;;;;;4936232;29;20194;-92
2022/12/13 02:38:48;;;;;;;2.40;2.30;;;-2.10;99.90;;;;;;4934698;29;20236;-93
2022/12/13 02:41:47;;;;;;;1.87;1.67;;;-2.10;99.90;;;;;;4944799;29;20193;-92
2022/12/13 02:44:16;;;;;;;1.73;1.57;;;-2.10;99.90;;;;;;4944642;29;20283;-92
2022/12/13 02:46:49;;;;;;;3.67;3.23;;;-2.10;99.90;;;;;;4933168;29;20579;-92
2022/12/13 02:49:16;;;;;;;2.63;1.73;;;-2.10;99.90;;;;;;4935637;28;20186;-90
2022/12/13 02:51:43;;;;;;;5.37;3.93;;;-2.10;99.90;;;;;;4935799;28;20190;-92
2022/12/13 02:54:09;;;;;;;5.97;4.03;;;-2.10;99.90;;;;;;4933064;29;20273;-93
2022/12/13 02:56:34;;;;;;;1.87;1.77;;;-2.10;99.90;;;;;;4944668;29;20266;-89
2022/12/13 02:59:04;;;;;;;3.30;3.07;;;-2.10;99.90;;;;;;4935092;29;20204;-92
2022/12/13 03:01:29;;;;;;;3.20;3.00;;;-2.10;99.90;;;;;;4937533;28;20216;-91
2022/12/13 03:04:04;;;;;;;1.67;1.57;;;-2.10;99.90;;;;;;4934254;29;20674;-89
2022/12/13 03:07:15;;;;;;;1.37;1.27;;;-2.10;99.90;;;;;;4936647;29;20189;-94
2022/12/13 03:10:07;;;;;;;0.67;0.67;;;-2.10;99.90;;;;;;4973587;28;20194;-90
2022/12/13 03:15:53;;;;;;;12.47;2.83;;;-2.30;99.90;;;;;;4936040;29;20186;-90
2022/12/13 03:18:20;;;;;;;1.17;1.17;;;-2.30;99.90;;;;;;4937915;28;20185;-93
2022/12/13 03:20:49;;;;;;;2.43;2.33;;;-2.30;99.90;;;;;;4930985;28;20392;-92
2022/12/13 03:23:17;;;;;;;2.50;2.40;;;-2.30;99.90;;;;;;4939518;29;20299;-90
2022/12/13 03:25:44;;;;;;;4.37;3.43;;;-2.30;99.90;;;;;;4932195;29;20284;-92
2022/12/13 03:28:11;;;;;;;5.60;4.10;;;-2.30;99.90;;;;;;4933922;28;20193;-94
2022/12/13 03:30:37;;;;;;;2.77;2.53;;;-2.30;99.90;;;;;;4936407;28;20630;-90
2022/12/13 03:33:03;;;;;;;5.00;2.90;;;-2.30;99.90;;;;;;4939023;28;20194;-91
2022/12/13 03:35:29;;;;;;;2.07;1.30;;;-2.30;99.90;;;;;;4934976;28;20194;-92
2022/12/13 03:37:55;;;;;;;1.57;1.57;;;-2.30;99.90;;;;;;4922325;29;20257;-93
2022/12/13 03:40:21;;;;;;;1.93;1.83;;;-2.30;99.90;;;;;;4947685;28;20293;-88
2022/12/13 03:42:47;;;;;;;4.53;2.33;;;-2.40;99.90;;;;;;4944681;28;20563;-90
2022/12/13 03:45:13;;;;;;;1.50;1.50;;;-2.40;99.90;;;;;;4943971;28;20625;-90
2022/12/13 03:47:38;;;;;;;1.87;1.77;;;-2.30;99.90;;;;;;4938383;29;20538;-91
2022/12/13 03:50:05;;;;;;;4.07;2.27;;;-2.40;99.90;;;;;;4939009;28;20272;-92
2022/12/13 03:52:31;;;;;;;4.33;3.77;;;-2.40;99.90;;;;;;4944105;29;20233;-91
2022/12/13 03:54:56;;;;;;;6.23;3.90;;;-2.40;99.90;;;;;;4935692;29;20237;-91
2022/12/13 03:57:23;;;;;;;2.83;1.57;;;-2.30;99.90;;;;;;4944324;28;21115;-92
2022/12/13 03:59:49;;;;;;;2.40;2.30;;;-2.30;99.90;;;;;;4936842;28;20266;-91
2022/12/13 04:02:14;;;;;;;3.40;1.33;;;-2.30;99.90;;;;;;4944329;29;20256;-92
2022/12/13 04:04:40;;;;;;;3.67;3.47;;;-2.20;99.90;;;;;;4936163;29;20715;-91
2022/12/13 04:07:06;;;;;;;0.70;0.70;;;-2.20;99.90;;;;;;4938372;29;20205;-91
2022/12/13 04:09:31;;;;;;;4.03;3.83;;;-2.20;99.90;;;;;;4946553;28;20198;-89
2022/12/13 04:14:41;;;;;;;4.90;4.37;;;-2.20;99.90;;;;;;4941935;29;20345;-90
2022/12/13 04:17:07;;;;;;;4.03;1.27;;;-2.30;99.90;;;;;;4936532;29;20263;-91
2022/12/13 04:19:32;;;;;;;3.10;2.90;;;-2.30;99.90;;;;;;4936630;29;20257;-93
2022/12/13 04:21:58;;;;;;;1.47;1.33;;;-2.30;99.90;;;;;;4951538;28;20217;-89
2022/12/13 04:24:24;;;;;;;3.33;3.13;;;-2.30;99.90;;;;;;4936559;29;20554;-90
2022/12/13 04:26:50;;;;;;;3.90;3.53;;;-2.30;99.90;;;;;;4936788;29;20194;-91
2022/12/13 04:29:16;;;;;;;2.83;2.73;;;-2.30;99.90;;;;;;4951986;28;20257;-90
2022/12/13 04:31:42;;;;;;;4.33;2.80;;;-2.20;99.90;;;;;;4944490;29;20192;-90
2022/12/13 04:34:07;;;;;;;2.53;2.00;;;-2.30;99.90;;;;;;4938745;29;20760;-88
2022/12/13 04:36:33;;;;;;;3.77;3.50;;;-2.20;99.90;;;;;;4942712;28;20238;-90
2022/12/13 04:39:03;;;;;;;2.17;2.07;;;-2.20;99.90;;;;;;4930974;29;20245;-88
2022/12/13 04:41:34;;;;;;;2.10;2.00;;;-2.10;99.90;;;;;;4936104;29;20225;-91
2022/12/13 04:44:01;;;;;;;2.23;2.10;;;-2.10;99.90;;;;;;4953262;28;20249;-92
2022/12/13 04:46:26;;;;;;;4.97;3.80;;;-2.10;99.90;;;;;;4937014;28;20261;-89
2022/12/13 04:48:52;;;;;;;2.07;1.97;;;-2.10;99.90;;;;;;4943489;29;20201;-91
2022/12/13 04:51:18;;;;;;;8.83;5.20;;;-2.10;99.90;;;;;;4951904;28;20284;-92
2022/12/13 04:53:44;;;;;;;4.40;1.70;;;-2.10;99.90;;;;;;4957862;28;20193;-89
2022/12/13 04:56:10;;;;;;;2.93;2.73;;;-2.20;99.90;;;;;;4946118;29;20317;-91
2022/12/13 04:58:35;;;;;;;3.40;1.57;;;-2.20;99.90;;;;;;4962962;28;20216;-92
2022/12/13 05:01:01;;;;;;;1.03;0.97;;;-2.20;99.90;;;;;;4928307;29;20628;-90
2022/12/13 05:03:27;;;;;;;1.33;1.33;;;-2.20;99.90;;;;;;4933574;28;20233;-89
2022/12/13 05:05:53;;;;;;;3.10;2.90;;;-2.20;99.90;;;;;;4938901;29;20197;-93
2022/12/13 05:08:19;;;;;;;0.97;0.97;;;-2.30;99.90;;;;;;4941516;29;20208;-91
2022/12/13 05:10:44;;;;;;;3.07;2.80;;;-2.20;99.90;;;;;;4956674;28;20249;-91
2022/12/13 05:13:10;;;;;;;5.83;5.23;;;-2.20;99.90;;;;;;4950204;28;20822;-90
2022/12/13 05:15:36;;;;;;;6.23;3.40;;;-2.10;99.90;;;;;;4939410;28;20561;-88
2022/12/13 05:18:04;;;;;;;1.87;1.77;;;-2.10;99.90;;;;;;4939788;28;20236;-91
2022/12/13 05:20:30;;;;;;;2.73;2.63;;;-2.20;99.90;;;;;;4941170;28;20190;-92
2022/12/13 05:22:56;;;;;;;1.87;1.80;;;-2.20;99.90;;;;;;4945644;29;20232;-89
2022/12/13 05:25:25;;;;;;;7.33;3.27;;;-2.20;99.90;;;;;;4937510;28;20201;-91
2022/12/13 05:27:52;;;;;;;3.03;2.13;;;-2.20;99.90;;;;;;4945663;28;20264;-88
2022/12/13 05:30:18;;;;;;;1.00;1.00;;;-2.20;99.90;;;;;;4953774;28;20277;-91
2022/12/13 05:32:44;;;;;;;1.63;1.53;;;-2.10;99.90;;;;;;4947306;29;20663;-92
2022/12/13 05:35:14;;;;;;;2.43;2.23;;;-2.10;99.90;;;;;;4940972;28;20189;-92
2022/12/13 05:37:40;;;;;;;2.17;2.03;;;-2.00;99.90;;;;;;4939694;28;20194;-93
2022/12/13 05:40:07;;;;;;;1.60;1.50;;;-2.00;99.90;;;;;;4941570;29;20662;-92
2022/12/13 05:42:33;;;;;;;2.63;2.43;;;-2.00;99.90;;;;;;4938609;29;20221;-91
2022/12/13 05:44:58;;;;;;;2.53;2.43;;;-1.90;99.90;;;;;;4953503;28;20208;-92
2022/12/13 05:47:24;;;;;;;3.20;2.90;;;-1.80;99.90;;;;;;4945278;29;20504;-92
2022/12/13 05:49:50;;;;;;;3.13;2.73;;;-1.80;99.90;;;;;;4950657;28;20220;-89
2022/12/13 05:52:21;;;;;;;5.93;3.77;;;-1.70;99.90;;;;;;4953678;28;20189;-91
2022/12/13 05:54:47;;;;;;;0.87;0.87;;;-1.70;99.90;;;;;;4947477;28;20193;-90
2022/12/13 05:57:14;;;;;;;3.23;2.93;;;-1.60;99.90;;;;;;4944209;29;20723;-90
2022/12/13 05:59:40;;;;;;;1.43;1.43;;;-1.60;99.90;;;;;;4951249;28;20181;-92
2022/12/13 06:02:06;;;;;;;2.10;2.00;;;-1.50;99.90;;;;;;4935918;28;20230;-91
2022/12/13 06:04:32;;;;;;;2.60;1.17;;;-1.60;99.90;;;;;;4935803;29;20195;-89
2022/12/13 06:06:58;;;;;;;1.57;1.50;;;-1.60;99.90;;;;;;4936857;29;20242;-90
2022/12/13 06:09:23;;;;;;;1.90;1.80;;;-1.50;99.90;;;;;;4944753;29;20210;-91
2022/12/13 06:11:49;;;;;;;2.23;2.13;;;-1.50;99.90;;;;;;4939189;28;20245;-89
2022/12/13 06:14:15;;;;;;;1.27;1.17;;;-1.40;99.90;;;;;;4949803;28;20291;-89
2022/12/13 06:16:41;;;;;;;3.80;3.60;;;-1.40;99.90;;;;;;4953256;28;20193;-91
2022/12/13 06:19:07;;;;;;;1.30;1.23;;;-1.40;99.90;;;;;;4933781;28;20190;-90
2022/12/13 06:21:33;;;;;;;6.87;3.07;;;-1.40;99.90;;;;;;4937976;29;20221;-91
2022/12/13 06:23:59;;;;;;;2.50;1.63;;;-1.40;99.90;;;;;;4936476;29;20189;-91
2022/12/13 06:26:25;;;;;;;3.20;2.67;;;-1.30;99.90;;;;;;4944561;28;20678;-89
2022/12/13 06:28:51;;;;;;;4.90;3.50;;;-1.40;99.90;;;;;;4953058;28;20356;-89
2022/12/13 06:31:17;;;;;;;3.33;3.10;;;-1.40;99.90;;;;;;4936328;29;20216;-92
2022/12/13 06:33:43;;;;;;;4.30;2.20;;;-1.50;99.90;;;;;;4945508;29;20232;-89
2022/12/13 06:36:09;;;;;;;4.20;3.80;;;-1.50;99.90;;;;;;4944210;29;20714;-89
2022/12/13 06:38:35;;;;;;;4.30;3.80;;;-1.50;99.90;;;;;;4934390;29;20318;-91
2022/12/13 06:41:12;;;;;;;6.07;5.67;;;-1.50;99.90;;;;;;4931186;28;20309;-91
2022/12/13 06:43:44;;;;;;;2.43;2.33;;;-1.50;99.90;;;;;;4953953;28;20197;-87
2022/12/13 06:46:10;;;;;;;5.50;5.10;;;-1.50;99.90;;;;;;4933618;28;20490;-88
2022/12/13 06:48:36;;;;;;;2.07;1.97;;;-1.50;99.90;;;;;;4936733;29;20190;-89
2022/12/13 06:51:06;;;;;;;2.20;2.10;;;-1.60;99.90;;;;;;4937395;29;20197;-90
2022/12/13 06:53:34;;;;;;;5.60;5.10;;;-1.60;99.90;;;;;;4944754;29;20193;-92
2022/12/13 06:56:09;;;;;;;2.00;1.90;;;-1.70;99.90;;;;;;4937794;29;20196;-91
2022/12/13 06:58:35;;;;;;;2.23;2.13;;;-1.70;99.90;;;;;;4936367;28;20217;-89
2022/12/13 07:01:19;;;;;;;3.47;3.17;;;-1.80;99.90;;;;;;4952600;28;20295;-89
2022/12/13 07:03:45;;;;;;;3.47;3.13;;;-1.80;99.90;;;;;;4938575;28;20201;-90
2022/12/13 07:06:19;;;;;;;2.33;2.13;;;-1.80;99.90;;;;;;4954622;28;20197;-92
2022/12/13 07:08:55;;;;;;;7.63;5.93;;;-1.80;99.90;;;;;;4952338;28;20199;-93
2022/12/13 07:11:23;;;;;;;4.50;3.07;;;-1.80;99.90;;;;;;4952635;28;20225;-92
2022/12/13 07:13:50;;;;;;;6.90;4.57;;;-1.80;99.90;;;;;;4935175;28;20197;-90
2022/12/13 07:16:16;;;;;;;2.30;2.20;;;-1.90;99.90;;;;;;4953100;28;20193;-92
2022/12/13 07:18:41;;;;;;;3.40;2.13;;;-1.90;99.90;;;;;;4951156;28;20185;-92
2022/12/13 07:21:09;;;;;;;3.93;3.30;;;-1.90;99.90;;;;;;4952519;28;20611;-91
2022/12/13 07:23:36;;;;;;;2.77;2.00;;;-1.90;99.90;;;;;;4934668;29;20197;-90
2022/12/13 07:26:02;;;;;;;2.13;1.93;;;-1.80;99.90;;;;;;4934171;29;20190;-93
2022/12/13 07:28:31;;;;;;;6.60;3.90;;;-1.90;99.90;;;;;;4933654;28;20226;-92
2022/12/13 07:31:00;;;;;;;1.93;1.93;;;-1.80;99.90;;;;;;4951393;28;20269;-89
2022/12/13 07:33:28;;;;;;;4.23;3.97;;;-1.80;99.90;;;;;;4949233;28;20198;-90
2022/12/13 07:36:08;;;;;;;5.00;3.57;;;-1.80;99.90;;;;;;4953474;28;20329;-90
2022/12/13 07:38:35;;;;;;;4.40;2.27;;;-1.80;99.90;;;;;;4943089;29;20217;-91
2022/12/13 07:41:01;;;;;;;2.03;1.93;;;-1.80;99.90;;;;;;4942911;28;20182;-92
2022/12/13 07:43:28;;;;;;;7.13;5.80;;;-1.80;99.90;;;;;;4939586;28;20209;-92
2022/12/13 07:45:58;;;;;;;4.50;4.10;;;-1.80;99.90;;;;;;4950601;28;20745;-94
2022/12/13 07:48:24;;;;;;;2.07;1.97;;;-1.80;99.90;;;;;;4954304;28;20182;-91
2022/12/13 07:50:50;;;;;;;8.30;4.23;;;-1.80;99.90;;;;;;4936838;28;20664;-91
2022/12/13 07:53:15;;;;;;;2.30;2.07;;;-1.80;99.90;;;;;;4950828;28;20194;-90
2022/12/13 07:55:41;;;;;;;2.23;2.17;;;-1.70;99.90;;;;;;4943209;28;20221;-91
2022/12/13 07:58:12;;;;;;;2.93;2.80;;;-1.80;99.90;;;;;;4929770;29;20197;-90
2022/12/13 08:00:40;;;;;;;2.17;1.97;;;-1.70;99.90;;;;;;4955799;28;20623;-90
2022/12/13 08:03:06;;;;;;;2.27;2.17;;;-1.70;99.90;;;;;;4940043;28;20266;-92
2022/12/13 08:05:33;;;;;;;3.33;3.07;;;-1.70;99.90;;;;;;4950225;28;20182;-91
2022/12/13 08:07:59;;;;;;;3.67;2.90;;;-1.60;99.90;;;;;;4953058;28;20194;-90
2022/12/13 08:10:25;;;;;;;2.93;2.83;;;-1.60;99.90;;;;;;4937320;28;20190;-91
2022/12/13 08:12:51;;;;;;;3.10;2.07;;;-1.50;99.90;;;;;;4938062;28;20208;-90
2022/12/13 08:15:17;;;;;;;9.40;4.00;;;-1.50;99.90;;;;;;4943748;28;20194;-92
2022/12/13 08:17:43;;;;;;;3.63;3.13;;;-1.40;99.90;;;;;;4942986;29;20629;-90
2022/12/13 08:20:10;;;;;;;6.03;5.30;;;-1.30;99.90;;;;;;4950749;28;20230;-92
2022/12/13 08:22:36;;;;;;;2.80;2.60;;;-1.20;99.90;;;;;;4947544;28;20566;-90
2022/12/13 08:25:01;;;;;;;3.80;3.63;;;-1.20;99.90;;;;;;4943637;29;20198;-90
2022/12/13 08:27:28;;;;;;;0.70;0.70;;;-1.10;99.90;;;;;;4964693;28;20193;-92
2022/12/13 08:29:54;;;;;;;2.83;2.73;;;-1.10;99.90;;;;;;4954519;28;20217;-89
2022/12/13 08:32:19;;;;;;;1.53;1.43;;;-1.10;99.90;;;;;;4945251;28;20201;-89
2022/12/13 08:34:45;;;;;;;1.73;1.63;;;-1.00;99.90;;;;;;4954625;28;20197;-89
2022/12/13 08:37:11;;;;;;;1.60;1.50;;;-0.90;99.90;;;;;;4956659;28;20249;-89
2022/12/13 08:39:38;;;;;;;7.77;4.60;;;-0.90;99.90;;;;;;4939446;29;20186;-90
2022/12/13 08:42:13;;;;;;;4.67;3.60;;;-0.80;99.90;;;;;;4938134;29;20221;-92
2022/12/13 08:44:38;;;;;;;1.90;1.73;;;-0.70;99.90;;;;;;4935580;28;20193;-91
2022/12/13 08:47:04;;;;;;;3.43;3.23;;;-0.50;99.90;;;;;;4954530;28;20201;-92
2022/12/13 08:49:30;;;;;;;1.07;1.07;;;-0.40;99.90;;;;;;4947341;28;20662;-91
2022/12/13 08:51:56;;;;;;;4.20;3.53;;;-0.40;99.90;;;;;;4959238;28;20216;-93
2022/12/13 08:54:21;;;;;;;4.37;2.10;;;-0.30;99.90;;;;;;4965073;28;20198;-92
2022/12/13 08:56:47;;;;;;;0.97;0.97;;;-0.20;99.90;;;;;;4949822;28;20548;-94
2022/12/13 08:59:13;;;;;;;2.37;2.27;;;-0.10;99.90;;;;;;4948271;28;20190;-90
2022/12/13 09:01:39;;;;;;;5.83;3.43;;;0.00;99.90;;;;;;4954912;28;20226;-94
2022/12/13 09:04:04;;;;;;;12.70;7.67;;;0.10;99.90;;;;;;4947772;29;20201;-95
2022/12/13 09:06:30;;;;;;;4.67;3.43;;;0.10;99.90;;;;;;4942683;29;20631;-92
2022/12/13 09:08:56;;;;;;;4.90;4.33;;;0.30;99.90;;;;;;4951572;28;20190;-91
2022/12/13 09:11:22;;;;;;;6.27;3.17;;;0.40;99.90;;;;;;4939097;29;20260;-90
2022/12/13 09:13:48;;;;;;;10.67;5.73;;;0.50;99.90;;;;;;4945131;29;20670;-91
2022/12/13 09:16:21;;;;;;;10.10;7.90;;;0.50;99.90;;;;;;4939342;28;20201;-90
2022/12/13 09:18:46;;;;;;;7.43;5.20;;;0.50;99.90;;;;;;4941400;28;20280;-89
2022/12/13 09:21:14;;;;;;;7.87;6.87;;;0.50;99.90;;;;;;4942466;28;20675;-94
2022/12/13 09:23:43;;;;;;;4.13;3.77;;;0.70;99.90;;;;;;4946839;29;20292;-92
2022/12/13 09:26:14;;;;;;;3.27;3.17;;;0.70;99.90;;;;;;4948394;29;20185;-90
2022/12/13 09:28:40;;;;;;;3.47;3.27;;;0.90;99.90;;;;;;4938585;29;20190;-89
2022/12/13 09:31:10;;;;;;;6.97;5.03;;;1.00;99.90;;;;;;4938776;28;20193;-88
2022/12/13 09:33:36;;;;;;;16.40;9.73;;;1.10;99.90;;;;;;4945558;28;20181;-88
2022/12/13 09:36:07;;;;;;;5.37;4.10;;;1.10;99.90;;;;;;4946872;29;20185;-89
2022/12/13 09:38:34;;;;;;;10.83;5.73;;;1.10;99.90;;;;;;4945198;28;20592;-89
2022/12/13 09:41:11;;;;;;;3.47;2.77;;;1.20;99.90;;;;;;4936625;29;20189;-89
2022/12/13 09:43:38;;;;;;;4.63;4.27;;;1.20;99.90;;;;;;4950709;28;20224;-91
2022/12/13 09:46:10;;;;;;;3.07;2.93;;;1.20;99.90;;;;;;4937137;29;20197;-93
2022/12/13 09:48:36;;;;;;;2.77;2.57;;;1.30;99.90;;;;;;4938595;28;20197;-92
2022/12/13 09:51:02;;;;;;;6.80;6.27;;;1.40;99.90;;;;;;4957324;28;20224;-91
2022/12/13 09:53:28;;;;;;;3.33;3.13;;;1.40;99.90;;;;;;4944936;28;20570;-91
2022/12/13 09:55:54;;;;;;;11.00;8.83;;;1.50;99.90;;;;;;4936872;29;20258;-90
2022/12/13 09:58:25;;;;;;;5.03;4.70;;;1.40;99.90;;;;;;4961004;28;20181;-91
2022/12/13 10:00:55;;;;;;;3.83;3.63;;;1.30;99.90;;;;;;4957269;28;20181;-95
2022/12/13 10:03:23;;;;;;;7.03;6.43;;;1.30;99.90;;;;;;4945007;29;20202;-90
2022/12/13 10:05:58;;;;;;;3.43;3.23;;;1.30;99.90;;;;;;4933054;29;20213;-91
2022/12/13 10:08:39;;;;;;;4.27;3.67;;;1.20;99.90;;;;;;4955707;28;20193;-91
2022/12/13 10:11:05;;;;;;;5.37;4.93;;;1.30;99.90;;;;;;4940216;28;20274;-94
2022/12/13 10:13:42;;;;;;;8.77;7.93;;;1.30;99.90;;;;;;4952286;28;20252;-91
2022/12/13 10:16:23;;;;;;;9.13;7.23;;;1.30;99.90;;;;;;4954934;28;20191;-92
2022/12/13 10:18:49;;;;;;;3.17;1.77;;;1.20;99.90;;;;;;4954690;28;20241;-91
2022/12/13 10:21:27;;;;;;;4.27;3.97;;;1.30;99.90;;;;;;4920698;29;20456;-89
2022/12/13 10:23:53;;;;;;;4.53;4.30;;;1.30;99.90;;;;;;4941631;28;20228;-88
2022/12/13 10:26:18;;;;;;;6.80;4.40;;;1.30;99.90;;;;;;4945628;29;20710;-91
2022/12/13 10:28:44;;;;;;;7.90;7.00;;;1.40;99.90;;;;;;4951614;28;20216;-93
2022/12/13 10:31:18;;;;;;;3.23;3.13;;;1.40;99.90;;;;;;4962526;28;20784;-93
2022/12/13 10:33:54;;;;;;;5.67;4.13;;;1.30;99.90;;;;;;4956618;28;20450;-90
2022/12/13 10:36:37;;;;;;;4.00;3.73;;;1.30;99.90;;;;;;4944930;28;20192;-92
2022/12/13 10:39:03;;;;;;;4.27;4.07;;;1.30;99.90;;;;;;4939074;28;20283;-91
2022/12/13 10:41:37;;;;;;;4.70;4.40;;;1.30;99.90;;;;;;4953266;28;20202;-92
2022/12/13 10:44:18;;;;;;;3.50;3.30;;;1.40;99.90;;;;;;4936386;29;20224;-91
2022/12/13 10:47:19;;;;;;;3.33;3.10;;;1.40;99.90;;;;;;4937594;28;20740;-92
2022/12/13 10:49:54;;;;;;;4.77;3.77;;;1.40;99.90;;;;;;4943640;28;20222;-90
2022/12/13 10:52:28;;;;;;;3.40;3.13;;;1.40;99.90;;;;;;4935823;29;20212;-90
2022/12/13 10:54:56;;;;;;;3.20;3.10;;;1.40;99.90;;;;;;4936634;28;20303;-89
2022/12/13 10:57:22;;;;;;;3.83;3.40;;;1.40;99.90;;;;;;4952488;28;20194;-90
2022/12/13 10:59:49;;;;;;;4.07;3.67;;;1.40;99.90;;;;;;4937588;29;20193;-89
2022/12/13 11:02:27;;;;;;;5.40;4.90;;;1.50;99.90;;;;;;4944941;29;20224;-89
2022/12/13 11:04:53;;;;;;;2.50;2.17;;;1.40;99.90;;;;;;4935519;28;20200;-92
2022/12/13 11:07:30;;;;;;;6.80;4.47;;;1.50;99.90;;;;;;4940701;28;20263;-90
2022/12/13 11:09:58;;;;;;;4.33;3.33;;;1.50;99.90;;;;;;4936900;29;20226;-91
2022/12/13 11:12:26;;;;;;;4.60;2.23;;;1.50;99.90;;;;;;4950394;28;20254;-92
2022/12/13 11:15:05;;;;;;;2.50;2.37;;;1.50;99.90;;;;;;4941394;28;20185;-92
2022/12/13 11:17:36;;;;;;;4.77;4.47;;;1.60;99.90;;;;;;4943648;28;20193;-90
2022/12/13 11:20:06;;;;;;;2.33;2.23;;;1.70;99.90;;;;;;4929451;28;22187;-92
2022/12/13 11:22:38;;;;;;;7.30;6.67;;;1.70;99.90;;;;;;4947252;28;20387;-90
2022/12/13 11:25:19;;;;;;;6.10;4.60;;;1.80;99.90;;;;;;4942679;28;20177;-90
2022/12/13 11:28:27;;;;;;;3.47;3.17;;;1.90;99.90;;;;;;4938548;28;20224;-91
2022/12/13 11:31:05;;;;;;;4.50;4.10;;;1.90;99.90;;;;;;4963548;28;20202;-91
2022/12/13 11:34:13;;;;;;;4.47;4.10;;;2.00;99.90;;;;;;4952200;28;20663;-90
2022/12/13 11:36:49;;;;;;;6.30;4.97;;;1.90;99.90;;;;;;4936424;29;20245;-91
2022/12/13 11:39:24;;;;;;;2.63;2.53;;;2.00;99.90;;;;;;4957464;28;20192;-93
2022/12/13 11:41:56;;;;;;;9.83;4.77;;;2.00;99.90;;;;;;4954522;28;20212;-90
2022/12/13 11:44:28;;;;;;;1.70;1.60;;;1.90;99.90;;;;;;4954437;28;20201;-90
2022/12/13 11:46:57;;;;;;;9.17;5.63;;;1.80;99.90;;;;;;4953732;28;20189;-92
2022/12/13 11:49:31;;;;;;;5.27;4.83;;;1.90;99.90;;;;;;4945687;28;20218;-91
2022/12/13 11:52:13;;;;;;;5.30;3.87;;;1.90;99.90;;;;;;4956997;28;20329;-94
2022/12/13 11:55:00;;;;;;;3.37;3.17;;;2.00;99.90;;;;;;4954931;28;20209;-94
2022/12/13 11:57:44;;;;;;;4.23;3.83;;;2.10;99.90;;;;;;4955639;28;20204;-94
2022/12/13 12:00:36;;;;;;;4.93;4.43;;;2.20;99.90;;;;;;4946717;28;20249;-93
2022/12/13 12:03:36;;;;;;;4.80;4.23;;;2.20;99.90;;;;;;4942938;29;20217;-95
2022/12/13 12:06:14;;;;;;;4.20;3.80;;;2.30;99.90;;;;;;4956460;28;20456;-94
2022/12/13 12:09:02;;;;;;;5.57;5.07;;;2.30;99.90;;;;;;4958185;28;20216;-94
2022/12/13 12:11:31;;;;;;;4.03;3.80;;;2.40;99.90;;;;;;4956622;28;20264;-92
2022/12/13 12:14:09;;;;;;;3.57;3.37;;;2.30;99.90;;;;;;4957612;28;20202;-93
2022/12/13 12:16:47;;;;;;;4.20;3.90;;;2.20;99.90;;;;;;4950927;28;20216;-94
2022/12/13 12:19:15;;;;;;;4.83;4.47;;;2.20;99.90;;;;;;4959040;28;20245;-92
2022/12/13 12:21:47;;;;;;;3.47;3.00;;;2.20;99.90;;;;;;4950393;28;20245;-91
2022/12/13 12:24:34;;;;;;;4.03;3.17;;;2.30;99.90;;;;;;4959076;28;20197;-89
2022/12/13 12:27:35;;;;;;;4.37;3.47;;;2.30;99.90;;;;;;4938827;28;20193;-86
2022/12/13 12:30:19;;;;;;;4.97;3.77;;;2.30;99.90;;;;;;4937515;28;20240;-86
2022/12/13 12:33:42;;;;;;;5.00;3.77;;;2.40;99.90;;;;;;4939842;28;20204;-86
2022/12/13 12:36:11;;;;;;;4.63;4.33;;;2.40;99.90;;;;;;4992020;28;20199;-87
2022/12/13 12:39:24;;;;;;;5.67;5.23;;;2.60;99.90;;;;;;4990845;28;20187;-86
2022/12/13 12:41:49;;;;;;;3.53;3.23;;;3.10;99.90;;;;;;4947427;28;20577;-86
2022/12/13 12:44:34;;;;;;;11.17;9.50;;;4.10;99.90;;;;;;4935561;28;20194;-87
2022/12/13 12:47:15;;;;;;;7.77;6.47;;;4.80;99.90;;;;;;4954096;28;20200;-88
2022/12/13 12:50:02;;;;;;;7.03;4.93;;;4.90;99.90;;;;;;4951656;28;20248;-88
2022/12/13 12:52:53;;;;;;;5.13;4.53;;;4.90;99.90;;;;;;4939628;28;20193;-87
2022/12/13 12:55:44;;;;;;;3.90;3.50;;;4.80;99.90;;;;;;4935511;28;20201;-87
2022/12/13 12:58:15;;;;;;;5.30;3.60;;;4.60;99.90;;;;;;4940405;28;20628;-86
2022/12/13 13:00:59;;;;;;;7.83;5.63;;;4.40;99.90;;;;;;4942466;28;20185;-87
2022/12/13 13:03:28;;;;;;;7.33;4.57;;;4.20;99.90;;;;;;4932162;28;20205;-87
2022/12/13 13:06:12;;;;;;;5.40;3.80;;;4.10;99.90;;;;;;4935711;28;20651;-88
2022/12/13 13:08:55;;;;;;;6.33;5.60;;;3.90;99.90;;;;;;4945544;29;20574;-88
2022/12/13 13:11:24;;;;;;;6.13;5.53;;;3.90;99.90;;;;;;4942554;28;20229;-87
2022/12/13 13:14:24;;;;;;;5.27;3.17;;;3.80;99.90;;;;;;4946606;28;20737;-86